createdAt,value
2023-03-08T00:01:19.615Z,1.20
2023-03-08T00:03:46.734Z,1.23
2023-03-08T00:06:15.887Z,1.33
2023-03-08T00:08:43.233Z,1.73
2023-03-08T00:11:12.608Z,1.50
2023-03-08T00:13:40.578Z,2.10
2023-03-08T00:16:10.417Z,1.37
2023-03-08T00:18:37.273Z,1.03
2023-03-08T00:21:15.179Z,1.00
2023-03-08T00:23:42.999Z,1.10
2023-03-08T00:26:12.564Z,1.20
2023-03-08T00:28:40.344Z,1.50
2023-03-08T00:31:11.096Z,1.47
2023-03-08T00:33:38.388Z,1.20
2023-03-08T00:36:13.647Z,0.90
2023-03-08T00:38:40.400Z,1.23
2023-03-08T00:41:07.354Z,1.37
2023-03-08T00:43:34.354Z,1.20
2023-03-08T00:46:01.357Z,1.23
2023-03-08T00:48:28.259Z,1.40
2023-03-08T00:50:55.040Z,1.30
2023-03-08T00:53:21.923Z,1.23
2023-03-08T00:55:57.831Z,1.20
2023-03-08T00:58:26.843Z,1.30
2023-03-08T01:00:54.071Z,1.00
2023-03-08T01:03:24.790Z,1.73
2023-03-08T01:05:54.303Z,2.20
2023-03-08T01:08:22.333Z,1.30
2023-03-08T01:10:54.747Z,1.20
2023-03-08T01:13:21.621Z,1.17
2023-03-08T01:15:48.443Z,1.27
2023-03-08T01:18:15.234Z,1.30
2023-03-08T01:20:42.247Z,1.30
2023-03-08T01:23:09.582Z,1.20
2023-03-08T01:25:36.755Z,1.20
2023-03-08T01:28:03.587Z,1.17
2023-03-08T01:30:30.396Z,1.50
2023-03-08T01:32:57.133Z,1.10
2023-03-08T01:35:23.812Z,1.20
2023-03-08T01:37:53.633Z,1.10
2023-03-08T01:40:21.259Z,1.00
2023-03-08T01:42:51.911Z,1.10
2023-03-08T01:45:56.505Z,1.20
2023-03-08T01:48:30.491Z,1.50
2023-03-08T01:50:58.406Z,1.57
2023-03-08T01:53:25.875Z,1.77
2023-03-08T01:55:55.603Z,1.33
2023-03-08T01:58:22.823Z,1.10
2023-03-08T02:00:49.581Z,1.30
2023-03-08T02:03:16.460Z,1.20
2023-03-08T02:05:44.483Z,1.17
2023-03-08T02:08:11.264Z,1.57
2023-03-08T02:10:38.937Z,1.20
2023-03-08T02:13:07.349Z,0.90
2023-03-08T02:15:34.425Z,1.00
2023-03-08T02:18:01.153Z,1.10
2023-03-08T02:20:32.573Z,1.10
2023-03-08T02:23:17.310Z,1.20
2023-03-08T02:26:04.959Z,1.07
2023-03-08T02:28:32.961Z,0.90
2023-03-08T02:30:59.795Z,1.00
2023-03-08T02:33:26.819Z,1.23
2023-03-08T02:35:54.091Z,1.73
2023-03-08T02:38:22.043Z,1.00
2023-03-08T02:40:51.625Z,1.20
2023-03-08T02:43:18.920Z,1.20
2023-03-08T02:45:46.146Z,1.17
2023-03-08T02:48:13.707Z,1.10
2023-03-08T02:50:40.701Z,1.30
2023-03-08T02:53:07.796Z,1.10
2023-03-08T02:55:37.859Z,1.33
2023-03-08T02:58:06.086Z,1.00
2023-03-08T03:00:34.347Z,0.90
2023-03-08T03:03:01.035Z,1.10
2023-03-08T03:05:27.767Z,1.17
2023-03-08T03:07:55.453Z,1.50
2023-03-08T03:10:22.199Z,1.27
2023-03-08T03:12:48.957Z,1.10
2023-03-08T03:15:15.735Z,1.23
2023-03-08T03:17:42.433Z,1.20
2023-03-08T03:20:09.908Z,1.10
2023-03-08T03:22:37.122Z,1.50
2023-03-08T03:25:05.165Z,1.43
2023-03-08T03:27:31.964Z,1.67
2023-03-08T03:29:58.765Z,1.80
2023-03-08T03:32:25.780Z,1.50
2023-03-08T03:34:52.690Z,1.80
2023-03-08T03:37:19.339Z,1.73
2023-03-08T03:39:46.130Z,1.60
2023-03-08T03:42:12.871Z,2.00
2023-03-08T03:44:39.564Z,1.70
2023-03-08T03:47:06.613Z,2.00
2023-03-08T03:49:33.653Z,1.60
2023-03-08T03:52:00.355Z,1.83
2023-03-08T03:54:27.505Z,1.43
2023-03-08T03:56:58.286Z,2.17
2023-03-08T03:59:26.779Z,2.40
2023-03-08T04:01:53.766Z,2.40
2023-03-08T04:04:20.656Z,3.13
2023-03-08T04:06:47.735Z,2.40
2023-03-08T04:09:17.638Z,3.60
2023-03-08T04:11:44.515Z,2.43
2023-03-08T04:14:11.606Z,2.90
2023-03-08T04:16:39.693Z,2.33
2023-03-08T04:19:12.613Z,2.27
2023-03-08T04:21:39.608Z,2.37
2023-03-08T04:24:08.159Z,2.10
2023-03-08T04:26:36.537Z,2.33
2023-03-08T04:29:06.132Z,2.20
2023-03-08T04:31:35.711Z,1.90
2023-03-08T04:34:03.547Z,2.10
2023-03-08T04:36:30.726Z,2.33
2023-03-08T04:38:57.598Z,2.33
2023-03-08T04:41:24.562Z,2.30
2023-03-08T04:43:56.368Z,2.40
2023-03-08T04:46:28.331Z,2.50
2023-03-08T04:48:55.964Z,3.13
2023-03-08T04:51:26.812Z,2.73
2023-03-08T04:53:53.953Z,3.17
2023-03-08T04:56:21.083Z,3.03
2023-03-08T04:58:48.302Z,3.47
2023-03-08T05:01:20.617Z,3.43
2023-03-08T05:03:49.849Z,3.50
2023-03-08T05:06:17.094Z,4.63
2023-03-08T05:08:44.382Z,3.97
2023-03-08T05:11:18.987Z,4.00
2023-03-08T05:13:46.026Z,3.87
2023-03-08T05:16:13.189Z,3.63
2023-03-08T05:18:40.065Z,3.70
2023-03-08T05:21:10.594Z,3.77
2023-03-08T05:23:37.322Z,3.90
2023-03-08T05:26:06.062Z,3.70
2023-03-08T05:28:34.788Z,3.47
2023-03-08T05:31:12.297Z,3.93
2023-03-08T05:33:40.330Z,4.10
2023-03-08T05:36:07.985Z,3.67
2023-03-08T05:38:35.099Z,3.67
2023-03-08T05:41:09.330Z,4.43
2023-03-08T05:43:36.179Z,3.97
2023-03-08T05:46:06.590Z,4.17
2023-03-08T05:48:35.051Z,4.23
2023-03-08T05:51:09.866Z,4.37
2023-03-08T05:53:37.183Z,3.83
2023-03-08T05:56:12.000Z,4.13
2023-03-08T05:58:40.442Z,3.53
2023-03-08T06:01:25.585Z,3.93
2023-03-08T06:03:55.065Z,4.10
2023-03-08T06:06:23.350Z,4.33
2023-03-08T06:08:50.403Z,5.00
2023-03-08T06:11:18.302Z,5.43
2023-03-08T06:13:44.983Z,5.33
2023-03-08T06:16:11.888Z,5.20
2023-03-08T06:18:40.152Z,5.43
2023-03-08T06:21:15.799Z,5.07
2023-03-08T06:23:43.089Z,5.80
2023-03-08T06:26:11.149Z,5.30
2023-03-08T06:28:40.397Z,5.67
2023-03-08T06:31:09.168Z,5.27
2023-03-08T06:33:35.900Z,5.63
2023-03-08T06:36:12.325Z,6.07
2023-03-08T06:38:40.651Z,5.90
2023-03-08T06:41:09.103Z,5.50
2023-03-08T06:43:36.667Z,4.73
2023-03-08T06:46:11.749Z,4.70
2023-03-08T06:48:39.074Z,4.40
2023-03-08T06:51:06.304Z,4.77
2023-03-08T06:53:36.223Z,4.97
2023-03-08T06:56:03.793Z,5.30
2023-03-08T06:58:31.681Z,5.33
2023-03-08T07:01:00.580Z,4.27
2023-03-08T07:03:27.967Z,5.07
2023-03-08T07:06:00.271Z,5.00
2023-03-08T07:08:27.240Z,4.47
2023-03-08T07:10:54.160Z,5.20
2023-03-08T07:13:23.624Z,4.03
2023-03-08T07:15:51.722Z,4.27
2023-03-08T07:18:19.721Z,4.40
2023-03-08T07:20:51.451Z,4.53
2023-03-08T07:23:18.161Z,4.80
2023-03-08T07:25:44.873Z,4.57
2023-03-08T07:28:11.796Z,4.70
2023-03-08T07:30:38.764Z,4.73
2023-03-08T07:33:05.498Z,5.10
2023-03-08T07:35:32.471Z,4.50
2023-03-08T07:37:59.216Z,4.63
2023-03-08T07:40:25.911Z,4.93
2023-03-08T07:42:52.701Z,4.63
2023-03-08T07:45:19.624Z,4.50
2023-03-08T07:47:46.433Z,4.57
2023-03-08T07:50:13.452Z,3.83
2023-03-08T07:52:40.071Z,4.50
2023-03-08T07:55:07.521Z,4.53
2023-03-08T07:57:34.262Z,4.13
2023-03-08T08:00:01.017Z,4.27
2023-03-08T08:02:28.758Z,4.60
2023-03-08T08:04:56.555Z,4.83
2023-03-08T08:07:23.293Z,4.57
2023-03-08T08:09:49.987Z,4.53
2023-03-08T08:12:16.869Z,4.43
2023-03-08T08:14:46.338Z,4.47
2023-03-08T08:17:13.021Z,4.63
2023-03-08T08:19:40.145Z,4.90
2023-03-08T08:22:07.538Z,4.80
2023-03-08T08:24:34.236Z,4.90
2023-03-08T08:27:00.883Z,4.53
2023-03-08T08:29:27.581Z,3.97
2023-03-08T08:31:54.265Z,4.27
2023-03-08T08:34:21.039Z,3.83
2023-03-08T08:36:47.759Z,4.60
2023-03-08T08:39:14.846Z,4.37
2023-03-08T08:41:41.709Z,4.33
2023-03-08T08:44:11.764Z,4.20
2023-03-08T08:46:38.555Z,4.20
2023-03-08T08:49:06.464Z,4.57
2023-03-08T08:51:33.243Z,4.00
2023-03-08T08:53:59.932Z,3.60
2023-03-08T08:56:28.686Z,4.00
2023-03-08T08:59:04.852Z,3.60
2023-03-08T09:01:33.298Z,3.77
2023-03-08T09:04:00.070Z,4.10
2023-03-08T09:06:28.068Z,4.00
2023-03-08T09:08:57.285Z,3.43
2023-03-08T09:11:25.402Z,3.63
2023-03-08T09:13:53.353Z,4.13
2023-03-08T09:16:23.816Z,3.57
2023-03-08T09:18:51.112Z,4.10
2023-03-08T09:21:19.557Z,4.07
2023-03-08T09:23:46.291Z,4.13
2023-03-08T09:26:13.411Z,4.10
2023-03-08T09:28:40.255Z,4.43
2023-03-08T09:31:14.872Z,4.60
2023-03-08T09:33:51.868Z,4.77
2023-03-08T09:36:19.548Z,4.30
2023-03-08T09:38:50.295Z,4.73
2023-03-08T09:41:21.721Z,4.80
2023-03-08T09:44:25.367Z,4.37
2023-03-08T09:46:58.548Z,3.93
2023-03-08T09:49:30.744Z,3.97
2023-03-08T09:52:22.444Z,4.30
2023-03-08T09:54:50.803Z,3.83
2023-03-08T09:57:23.880Z,4.30
2023-03-08T09:59:57.186Z,4.00
2023-03-08T10:02:51.609Z,4.83
2023-03-08T10:05:35.577Z,4.70
2023-03-08T10:08:21.651Z,4.17
2023-03-08T10:11:07.641Z,5.47
2023-03-08T10:13:49.459Z,5.20
2023-03-08T10:16:28.647Z,4.93
2023-03-08T10:19:14.673Z,5.80
2023-03-08T10:21:44.334Z,5.63
2023-03-08T10:24:16.892Z,6.27
2023-03-08T10:26:44.165Z,7.07
2023-03-08T10:29:13.092Z,7.07
2023-03-08T10:31:43.443Z,8.20
2023-03-08T10:34:15.373Z,8.37
2023-03-08T10:36:51.545Z,8.03
2023-03-08T10:39:18.410Z,7.27
2023-03-08T10:41:49.685Z,7.17
2023-03-08T10:44:33.163Z,7.37
2023-03-08T10:47:04.287Z,6.13
2023-03-08T10:49:31.085Z,6.43
2023-03-08T10:52:00.235Z,6.00
2023-03-08T10:54:28.830Z,6.20
2023-03-08T10:56:59.094Z,5.70
2023-03-08T10:59:34.402Z,5.30
2023-03-08T11:02:02.822Z,4.80
2023-03-08T11:04:30.969Z,4.40
2023-03-08T11:06:59.032Z,4.47
2023-03-08T11:09:26.729Z,4.73
2023-03-08T11:11:54.613Z,4.80
2023-03-08T11:14:21.557Z,4.77
2023-03-08T11:17:15.937Z,4.43
2023-03-08T11:19:49.299Z,4.63
2023-03-08T11:22:19.763Z,4.67
2023-03-08T11:25:15.283Z,4.77
2023-03-08T11:27:45.289Z,4.80
2023-03-08T11:30:39.929Z,4.60
2023-03-08T11:33:31.842Z,4.53
2023-03-08T11:36:21.152Z,3.90
2023-03-08T11:38:57.048Z,4.10
2023-03-08T11:41:36.617Z,4.40
2023-03-08T11:44:43.696Z,3.83
2023-03-08T11:47:30.376Z,4.57
2023-03-08T11:50:23.129Z,4.20
2023-03-08T11:53:10.871Z,3.70
2023-03-08T11:55:52.623Z,4.90
2023-03-08T11:58:24.462Z,5.63
2023-03-08T12:00:58.846Z,4.20
2023-03-08T12:03:43.422Z,3.60
2023-03-08T12:06:40.301Z,3.30
2023-03-08T12:09:20.072Z,3.93
2023-03-08T12:11:53.799Z,3.33
2023-03-08T12:14:30.192Z,2.70
2023-03-08T12:17:11.260Z,3.50
2023-03-08T12:19:50.741Z,2.73
2023-03-08T12:22:33.716Z,3.23
2023-03-08T12:25:24.987Z,3.50
2023-03-08T12:28:02.071Z,2.93
2023-03-08T12:31:01.290Z,3.23
2023-03-08T12:33:32.375Z,3.00
2023-03-08T12:36:04.628Z,3.30
2023-03-08T12:38:45.769Z,2.83
2023-03-08T12:41:24.049Z,2.60
2023-03-08T12:44:27.860Z,3.40
2023-03-08T12:47:03.226Z,2.77
2023-03-08T12:49:33.153Z,3.00
2023-03-08T12:52:04.132Z,3.10
2023-03-08T12:54:34.557Z,2.50
2023-03-08T12:57:14.380Z,2.70
2023-03-08T12:59:41.378Z,3.00
2023-03-08T13:02:30.503Z,3.47
2023-03-08T13:05:19.289Z,3.43
2023-03-08T13:08:12.520Z,3.40
2023-03-08T13:10:53.569Z,3.47
2023-03-08T13:13:38.813Z,3.33
2023-03-08T13:16:15.474Z,2.90
2023-03-08T13:18:45.762Z,3.13
2023-03-08T13:21:15.538Z,2.87
2023-03-08T13:23:49.882Z,2.70
2023-03-08T13:26:47.586Z,3.60
2023-03-08T13:29:17.918Z,3.30
2023-03-08T13:31:45.933Z,3.03
2023-03-08T13:34:31.478Z,3.00
2023-03-08T13:36:59.203Z,3.00
2023-03-08T13:39:30.348Z,3.00
2023-03-08T13:42:11.961Z,3.37
2023-03-08T13:44:38.901Z,3.13
2023-03-08T13:47:19.788Z,3.00
2023-03-08T13:49:47.032Z,3.40
2023-03-08T13:52:18.594Z,2.63
2023-03-08T13:54:53.578Z,2.77
2023-03-08T13:57:30.457Z,3.00
2023-03-08T14:00:01.048Z,3.37
2023-03-08T14:02:34.596Z,3.43
2023-03-08T14:05:01.359Z,3.47
2023-03-08T14:07:32.044Z,3.57
2023-03-08T14:09:59.172Z,3.57
2023-03-08T14:12:30.870Z,4.03
2023-03-08T14:15:02.900Z,3.80
2023-03-08T14:17:32.341Z,3.43
2023-03-08T14:20:21.581Z,3.17
2023-03-08T14:22:53.021Z,3.70
2023-03-08T14:25:29.989Z,2.87
2023-03-08T14:27:57.761Z,3.13
2023-03-08T14:30:26.809Z,3.40
2023-03-08T14:33:15.760Z,3.10
2023-03-08T14:35:51.932Z,4.20
2023-03-08T14:38:26.907Z,2.80
2023-03-08T14:40:54.871Z,3.63
2023-03-08T14:43:24.822Z,4.17
2023-03-08T14:45:57.427Z,2.83
2023-03-08T14:48:31.813Z,3.10
2023-03-08T14:51:02.850Z,3.10
2023-03-08T14:53:38.730Z,3.20
2023-03-08T14:56:17.002Z,3.10
2023-03-08T14:58:54.527Z,2.90
2023-03-08T15:05:30.557Z,3.00
2023-03-08T15:07:59.855Z,2.80
2023-03-08T15:10:33.454Z,3.03
2023-03-08T15:13:00.832Z,2.70
2023-03-08T15:15:27.689Z,16.13
2023-03-08T15:17:54.450Z,4.83
2023-03-08T15:20:22.296Z,6.20
2023-03-08T15:22:53.763Z,3.33
2023-03-08T15:25:39.245Z,3.30
2023-03-08T15:28:06.161Z,2.90
2023-03-08T15:30:33.450Z,2.70
2023-03-08T15:33:00.545Z,4.67
2023-03-08T15:35:27.641Z,6.97
2023-03-08T15:37:54.568Z,5.83
2023-03-08T15:40:26.356Z,8.63
2023-03-08T15:42:53.425Z,4.77
2023-03-08T15:45:20.687Z,3.87
2023-03-08T15:48:02.743Z,4.10
2023-03-08T15:50:32.278Z,6.53
2023-03-08T15:52:59.900Z,4.97
2023-03-08T15:55:30.978Z,3.50
2023-03-08T15:57:58.836Z,3.03
2023-03-08T16:00:26.505Z,3.70
2023-03-08T16:02:56.111Z,5.10
2023-03-08T16:05:25.176Z,5.50
2023-03-08T16:08:02.517Z,4.63
2023-03-08T16:10:33.257Z,3.17
2023-03-08T16:13:00.252Z,2.80
2023-03-08T16:15:27.236Z,2.80
2023-03-08T16:17:54.179Z,2.80
2023-03-08T16:20:23.233Z,2.43
2023-03-08T16:22:50.696Z,2.60
2023-03-08T16:25:17.873Z,2.80
2023-03-08T16:27:44.683Z,2.70
2023-03-08T16:30:13.258Z,2.83
2023-03-08T16:32:40.106Z,2.63
2023-03-08T16:35:07.120Z,3.20
2023-03-08T16:37:35.046Z,3.27
2023-03-08T16:40:05.161Z,3.17
2023-03-08T16:42:32.080Z,3.17
2023-03-08T16:44:59.129Z,3.10
2023-03-08T16:47:26.841Z,5.43
2023-03-08T16:49:53.752Z,5.43
2023-03-08T16:52:20.824Z,4.63
2023-03-08T16:54:49.134Z,7.70
2023-03-08T16:57:19.807Z,5.70
2023-03-08T16:59:47.488Z,4.60
2023-03-08T17:02:17.693Z,3.60
2023-03-08T17:04:45.301Z,3.23
2023-03-08T17:07:12.322Z,3.07
2023-03-08T17:09:39.645Z,2.83
2023-03-08T17:12:08.116Z,3.50
2023-03-08T17:14:37.393Z,3.87
2023-03-08T17:17:04.693Z,5.70
2023-03-08T17:19:31.509Z,5.80
2023-03-08T17:21:58.483Z,5.10
2023-03-08T17:24:28.217Z,5.57
2023-03-08T17:26:55.390Z,9.20
2023-03-08T17:29:22.405Z,9.03
2023-03-08T17:31:49.695Z,9.60
2023-03-08T17:34:17.428Z,8.93
2023-03-08T17:36:46.755Z,8.17
2023-03-08T17:39:14.334Z,6.80
2023-03-08T17:41:42.874Z,5.80
2023-03-08T17:44:09.585Z,4.87
2023-03-08T17:46:36.439Z,4.83
2023-03-08T17:49:03.171Z,8.20
2023-03-08T17:51:31.531Z,7.83
2023-03-08T17:53:59.816Z,7.13
2023-03-08T17:56:30.097Z,6.77
2023-03-08T17:58:58.533Z,7.53
2023-03-08T18:01:28.075Z,7.63
2023-03-08T18:03:55.621Z,7.27
2023-03-08T18:06:29.561Z,6.37
2023-03-08T18:08:58.033Z,6.50
2023-03-08T18:11:25.459Z,5.80
2023-03-08T18:13:52.829Z,5.83
2023-03-08T18:16:21.171Z,6.20
2023-03-08T18:18:49.857Z,6.10
2023-03-08T18:21:21.107Z,6.17
2023-03-08T18:23:48.592Z,6.00
2023-03-08T18:26:17.005Z,6.00
2023-03-08T18:28:43.684Z,6.23
2023-03-08T18:31:14.673Z,7.20
2023-03-08T18:33:42.542Z,6.40
2023-03-08T18:36:09.481Z,6.87
2023-03-08T18:38:36.684Z,6.10
2023-03-08T18:41:23.612Z,6.53
2023-03-08T18:43:51.205Z,6.37
2023-03-08T18:46:18.411Z,5.97
2023-03-08T18:48:50.806Z,6.97
2023-03-08T18:51:18.045Z,6.37
2023-03-08T18:53:45.031Z,5.97
2023-03-08T18:56:12.518Z,6.43
2023-03-08T18:58:39.368Z,6.50
2023-03-08T19:01:12.379Z,6.07
2023-03-08T19:03:40.095Z,6.23
2023-03-08T19:06:07.271Z,7.10
2023-03-08T19:08:34.112Z,7.37
2023-03-08T19:11:13.734Z,8.10
2023-03-08T19:13:41.649Z,7.87
2023-03-08T19:16:22.370Z,9.13
2023-03-08T19:18:50.595Z,10.73
2023-03-08T19:21:23.440Z,11.57
2023-03-08T19:23:50.457Z,12.43
2023-03-08T19:26:38.929Z,10.10
2023-03-08T19:29:07.307Z,7.13
2023-03-08T19:31:36.599Z,8.57
2023-03-08T19:34:05.079Z,9.07
2023-03-08T19:36:33.575Z,8.67
2023-03-08T19:39:00.451Z,8.60
2023-03-08T19:41:27.441Z,7.33
2023-03-08T19:43:54.256Z,7.00
2023-03-08T19:46:21.192Z,7.30
2023-03-08T19:48:48.312Z,7.10
2023-03-08T19:51:17.343Z,8.30
2023-03-08T19:53:44.606Z,8.43
2023-03-08T19:56:19.565Z,8.37
2023-03-08T19:58:47.433Z,7.97
2023-03-08T20:01:17.140Z,6.60
2023-03-08T20:03:46.113Z,7.77
2023-03-08T20:06:20.895Z,6.43
2023-03-08T20:08:47.571Z,12.47
2023-03-08T20:11:14.441Z,11.83
2023-03-08T20:13:41.286Z,9.90
2023-03-08T20:16:07.962Z,8.80
2023-03-08T20:18:34.672Z,9.00
2023-03-08T20:21:03.120Z,10.50
2023-03-08T20:23:31.784Z,9.00
2023-03-08T20:26:01.359Z,11.20
2023-03-08T20:28:28.515Z,13.83
2023-03-08T20:30:55.350Z,15.27
2023-03-08T20:33:22.378Z,11.53
2023-03-08T20:36:00.434Z,9.83
2023-03-08T20:38:27.586Z,9.10
2023-03-08T20:41:01.706Z,10.70
2023-03-08T20:43:30.992Z,9.77
2023-03-08T20:46:01.575Z,8.00
2023-03-08T20:48:28.334Z,9.03
2023-03-08T20:51:00.002Z,9.13
2023-03-08T20:53:28.579Z,8.70
2023-03-08T20:55:55.520Z,8.53
2023-03-08T20:58:22.345Z,13.30
2023-03-08T21:00:49.602Z,11.83
2023-03-08T21:03:17.582Z,8.73
2023-03-08T21:05:44.978Z,7.53
2023-03-08T21:08:11.692Z,8.37
2023-03-08T21:10:39.916Z,7.97
2023-03-08T21:13:06.907Z,8.30
2023-03-08T21:15:35.252Z,8.43
2023-03-08T21:18:02.035Z,8.53
2023-03-08T21:20:28.735Z,7.90
2023-03-08T21:22:56.450Z,6.87
2023-03-08T21:25:27.670Z,8.20
2023-03-08T21:27:54.434Z,7.27
2023-03-08T21:30:21.829Z,7.53
2023-03-08T21:32:48.632Z,6.90
2023-03-08T21:35:15.685Z,6.80
2023-03-08T21:37:42.582Z,6.27
2023-03-08T21:40:10.210Z,7.07
2023-03-08T21:42:37.166Z,7.40
2023-03-08T21:45:04.142Z,7.70
2023-03-08T21:47:30.884Z,7.80
2023-03-08T21:49:57.634Z,7.60
2023-03-08T21:52:24.429Z,8.53
2023-03-08T21:54:51.312Z,7.47
2023-03-08T21:57:18.038Z,8.53
2023-03-08T21:59:44.772Z,8.20
2023-03-08T22:02:11.561Z,7.50
2023-03-08T22:04:39.736Z,7.70
2023-03-08T22:07:06.511Z,7.80
2023-03-08T22:09:33.557Z,7.93
2023-03-08T22:12:00.394Z,8.40
2023-03-08T22:14:28.266Z,8.50
2023-03-08T22:16:56.508Z,8.93
2023-03-08T22:19:23.303Z,7.43
2023-03-08T22:21:50.057Z,8.33
2023-03-08T22:24:16.750Z,8.30
2023-03-08T22:26:43.623Z,8.30
2023-03-08T22:29:10.417Z,9.63
2023-03-08T22:31:37.242Z,8.00
2023-03-08T22:34:04.210Z,8.80
2023-03-08T22:36:31.013Z,8.47
2023-03-08T22:38:57.728Z,8.27
2023-03-08T22:41:26.647Z,8.03
2023-03-08T22:43:53.695Z,8.23
2023-03-08T22:46:26.579Z,8.43
2023-03-08T22:48:57.604Z,8.73
2023-03-08T22:51:25.625Z,7.60
2023-03-08T22:53:52.355Z,7.73
2023-03-08T22:56:25.404Z,7.23
2023-03-08T22:58:52.811Z,7.60
2023-03-08T23:01:21.922Z,7.33
2023-03-08T23:03:49.787Z,7.77
2023-03-08T23:06:18.031Z,7.87
2023-03-08T23:08:45.409Z,7.63
2023-03-08T23:11:12.597Z,7.87
2023-03-08T23:13:39.746Z,7.50
2023-03-08T23:16:07.519Z,8.30
2023-03-08T23:18:35.267Z,8.30
2023-03-08T23:21:07.155Z,8.90
2023-03-08T23:23:34.855Z,9.47
2023-03-08T23:26:04.324Z,8.87
2023-03-08T23:28:35.614Z,8.30
2023-03-08T23:31:08.878Z,7.57
2023-03-08T23:33:35.644Z,8.37
2023-03-08T23:36:02.624Z,9.40
2023-03-08T23:38:29.392Z,7.87
2023-03-08T23:40:56.228Z,7.20
2023-03-08T23:43:22.958Z,7.83
2023-03-08T23:45:49.743Z,8.00
2023-03-08T23:48:16.545Z,8.17
2023-03-08T23:50:43.416Z,7.60
2023-03-08T23:53:10.180Z,7.67
2023-03-08T23:55:41.134Z,7.60
2023-03-08T23:58:08.471Z,7.83
